sensor_id;sensor_type;location;lat;lon;timestamp;P1;durP1;ratioP1;P2;durP2;ratioP2
3278;SDS011;1651;50.940;6.888;2022-09-09T00:03:33;4.73;;;1.50;;
3278;SDS011;1651;50.940;6.888;2022-09-09T00:06:05;2.57;;;1.53;;
3278;SDS011;1651;50.940;6.888;2022-09-09T00:08:40;2.43;;;1.10;;
3278;SDS011;1651;50.940;6.888;2022-09-09T00:11:08;2.57;;;1.20;;
3278;SDS011;1651;50.940;6.888;2022-09-09T00:13:37;4.23;;;1.50;;
3278;SDS011;1651;50.940;6.888;2022-09-09T00:21:19;7.33;;;1.60;;
3278;SDS011;1651;50.940;6.888;2022-09-09T00:23:48;3.10;;;1.20;;
3278;SDS011;1651;50.940;6.888;2022-09-09T00:26:51;4.83;;;1.40;;
3278;SDS011;1651;50.940;6.888;2022-09-09T00:29:12;4.10;;;1.43;;
3278;SDS011;1651;50.940;6.888;2022-09-09T00:31:39;3.20;;;1.30;;
3278;SDS011;1651;50.940;6.888;2022-09-09T00:36:36;1.83;;;1.13;;
3278;SDS011;1651;50.940;6.888;2022-09-09T00:39:03;3.63;;;1.30;;
3278;SDS011;1651;50.940;6.888;2022-09-09T00:44:03;4.03;;;2.47;;
3278;SDS011;1651;50.940;6.888;2022-09-09T00:46:44;2.73;;;1.50;;
3278;SDS011;1651;50.940;6.888;2022-09-09T00:51:58;2.00;;;1.10;;
3278;SDS011;1651;50.940;6.888;2022-09-09T00:54:33;2.80;;;1.30;;
3278;SDS011;1651;50.940;6.888;2022-09-09T00:59:50;1.60;;;1.10;;
3278;SDS011;1651;50.940;6.888;2022-09-09T01:05:05;1.37;;;1.27;;
3278;SDS011;1651;50.940;6.888;2022-09-09T01:07:32;2.50;;;1.57;;
3278;SDS011;1651;50.940;6.888;2022-09-09T01:09:59;2.90;;;1.30;;
3278;SDS011;1651;50.940;6.888;2022-09-09T01:12:35;3.13;;;1.37;;
3278;SDS011;1651;50.940;6.888;2022-09-09T01:15:09;2.60;;;1.40;;
3278;SDS011;1651;50.940;6.888;2022-09-09T01:17:46;1.40;;;1.10;;
3278;SDS011;1651;50.940;6.888;2022-09-09T01:20:17;4.03;;;1.20;;
3278;SDS011;1651;50.940;6.888;2022-09-09T01:27:52;3.20;;;1.30;;
3278;SDS011;1651;50.940;6.888;2022-09-09T01:30:20;1.33;;;1.17;;
3278;SDS011;1651;50.940;6.888;2022-09-09T01:32:52;2.10;;;1.10;;
3278;SDS011;1651;50.940;6.888;2022-09-09T01:37:49;1.50;;;1.40;;
3278;SDS011;1651;50.940;6.888;2022-09-09T01:40:15;4.57;;;1.00;;
3278;SDS011;1651;50.940;6.888;2022-09-09T01:42:41;3.60;;;1.00;;
3278;SDS011;1651;50.940;6.888;2022-09-09T01:45:07;3.17;;;1.13;;
3278;SDS011;1651;50.940;6.888;2022-09-09T01:47:33;2.30;;;1.20;;
3278;SDS011;1651;50.940;6.888;2022-09-09T01:49:59;1.63;;;1.40;;
3278;SDS011;1651;50.940;6.888;2022-09-09T01:52:29;3.77;;;1.60;;
3278;SDS011;1651;50.940;6.888;2022-09-09T01:54:55;2.60;;;1.03;;
3278;SDS011;1651;50.940;6.888;2022-09-09T01:57:29;1.23;;;1.10;;
3278;SDS011;1651;50.940;6.888;2022-09-09T02:02:39;4.13;;;1.10;;
3278;SDS011;1651;50.940;6.888;2022-09-09T02:07:42;3.43;;;1.27;;
3278;SDS011;1651;50.940;6.888;2022-09-09T02:10:09;1.77;;;1.10;;
3278;SDS011;1651;50.940;6.888;2022-09-09T02:12:38;4.80;;;1.20;;
3278;SDS011;1651;50.940;6.888;2022-09-09T02:15:07;1.40;;;1.30;;
3278;SDS011;1651;50.940;6.888;2022-09-09T02:17:36;2.20;;;1.47;;
3278;SDS011;1651;50.940;6.888;2022-09-09T02:20:07;1.87;;;1.23;;
3278;SDS011;1651;50.940;6.888;2022-09-09T02:22:34;4.83;;;1.30;;
3278;SDS011;1651;50.940;6.888;2022-09-09T02:25:01;2.80;;;1.40;;
3278;SDS011;1651;50.940;6.888;2022-09-09T02:27:28;3.37;;;1.80;;
3278;SDS011;1651;50.940;6.888;2022-09-09T02:29:54;2.00;;;1.43;;
3278;SDS011;1651;50.940;6.888;2022-09-09T02:32:22;2.07;;;1.20;;
3278;SDS011;1651;50.940;6.888;2022-09-09T02:34:51;1.67;;;1.30;;
3278;SDS011;1651;50.940;6.888;2022-09-09T02:37:20;2.60;;;1.50;;
3278;SDS011;1651;50.940;6.888;2022-09-09T02:39:47;1.33;;;1.23;;
3278;SDS011;1651;50.940;6.888;2022-09-09T02:42:13;5.03;;;1.50;;
3278;SDS011;1651;50.940;6.888;2022-09-09T02:44:41;1.50;;;1.27;;
3278;SDS011;1651;50.940;6.888;2022-09-09T02:52:10;2.23;;;1.27;;
3278;SDS011;1651;50.940;6.888;2022-09-09T02:54:42;7.33;;;1.70;;
3278;SDS011;1651;50.940;6.888;2022-09-09T02:59:35;2.47;;;1.40;;
3278;SDS011;1651;50.940;6.888;2022-09-09T03:02:01;2.10;;;1.60;;
3278;SDS011;1651;50.940;6.888;2022-09-09T03:04:27;2.80;;;1.77;;
3278;SDS011;1651;50.940;6.888;2022-09-09T03:06:54;1.73;;;1.37;;
3278;SDS011;1651;50.940;6.888;2022-09-09T03:09:20;4.80;;;1.53;;
3278;SDS011;1651;50.940;6.888;2022-09-09T03:11:47;3.47;;;2.03;;
3278;SDS011;1651;50.940;6.888;2022-09-09T03:14:14;3.37;;;1.70;;
3278;SDS011;1651;50.940;6.888;2022-09-09T03:16:40;3.60;;;1.53;;
3278;SDS011;1651;50.940;6.888;2022-09-09T03:19:07;5.67;;;2.00;;
3278;SDS011;1651;50.940;6.888;2022-09-09T03:21:34;2.20;;;1.33;;
3278;SDS011;1651;50.940;6.888;2022-09-09T03:24:00;2.80;;;1.63;;
3278;SDS011;1651;50.940;6.888;2022-09-09T03:26:28;4.23;;;2.00;;
3278;SDS011;1651;50.940;6.888;2022-09-09T03:28:55;3.43;;;1.93;;
3278;SDS011;1651;50.940;6.888;2022-09-09T03:31:21;3.63;;;1.60;;
3278;SDS011;1651;50.940;6.888;2022-09-09T03:33:47;2.27;;;1.33;;
3278;SDS011;1651;50.940;6.888;2022-09-09T03:36:14;3.50;;;1.93;;
3278;SDS011;1651;50.940;6.888;2022-09-09T03:38:41;2.37;;;1.50;;
3278;SDS011;1651;50.940;6.888;2022-09-09T03:41:07;3.10;;;1.60;;
3278;SDS011;1651;50.940;6.888;2022-09-09T03:43:33;3.63;;;1.60;;
3278;SDS011;1651;50.940;6.888;2022-09-09T03:45:59;3.40;;;1.40;;
3278;SDS011;1651;50.940;6.888;2022-09-09T03:48:25;3.37;;;1.73;;
3278;SDS011;1651;50.940;6.888;2022-09-09T03:50:53;3.70;;;1.90;;
3278;SDS011;1651;50.940;6.888;2022-09-09T03:53:20;3.07;;;1.73;;
3278;SDS011;1651;50.940;6.888;2022-09-09T03:55:47;4.17;;;2.13;;
3278;SDS011;1651;50.940;6.888;2022-09-09T03:58:14;4.33;;;1.80;;
3278;SDS011;1651;50.940;6.888;2022-09-09T04:00:40;8.60;;;1.87;;
3278;SDS011;1651;50.940;6.888;2022-09-09T04:03:09;3.50;;;1.60;;
3278;SDS011;1651;50.940;6.888;2022-09-09T04:05:35;3.67;;;2.07;;
3278;SDS011;1651;50.940;6.888;2022-09-09T04:08:04;3.97;;;2.10;;
3278;SDS011;1651;50.940;6.888;2022-09-09T04:10:30;4.47;;;2.00;;
3278;SDS011;1651;50.940;6.888;2022-09-09T04:12:57;4.13;;;1.90;;
3278;SDS011;1651;50.940;6.888;2022-09-09T04:15:24;4.43;;;1.90;;
3278;SDS011;1651;50.940;6.888;2022-09-09T04:17:50;3.67;;;2.00;;
3278;SDS011;1651;50.940;6.888;2022-09-09T04:20:16;3.63;;;2.63;;
3278;SDS011;1651;50.940;6.888;2022-09-09T04:22:42;3.10;;;1.90;;
3278;SDS011;1651;50.940;6.888;2022-09-09T04:25:08;5.47;;;1.70;;
3278;SDS011;1651;50.940;6.888;2022-09-09T04:27:34;2.90;;;1.77;;
3278;SDS011;1651;50.940;6.888;2022-09-09T04:30:00;4.27;;;1.97;;
3278;SDS011;1651;50.940;6.888;2022-09-09T04:32:26;6.60;;;3.50;;
3278;SDS011;1651;50.940;6.888;2022-09-09T04:34:53;5.50;;;2.30;;
3278;SDS011;1651;50.940;6.888;2022-09-09T04:37:19;3.30;;;2.13;;
3278;SDS011;1651;50.940;6.888;2022-09-09T04:39:46;3.00;;;1.80;;
3278;SDS011;1651;50.940;6.888;2022-09-09T04:42:12;3.57;;;2.23;;
3278;SDS011;1651;50.940;6.888;2022-09-09T04:44:39;3.87;;;2.00;;
3278;SDS011;1651;50.940;6.888;2022-09-09T04:47:05;3.63;;;1.90;;
3278;SDS011;1651;50.940;6.888;2022-09-09T04:49:31;4.03;;;1.80;;
3278;SDS011;1651;50.940;6.888;2022-09-09T04:51:57;3.03;;;2.10;;
3278;SDS011;1651;50.940;6.888;2022-09-09T04:54:23;6.13;;;3.10;;
3278;SDS011;1651;50.940;6.888;2022-09-09T04:56:50;5.43;;;2.10;;
3278;SDS011;1651;50.940;6.888;2022-09-09T04:59:17;6.07;;;2.20;;
3278;SDS011;1651;50.940;6.888;2022-09-09T05:01:45;5.13;;;1.83;;
3278;SDS011;1651;50.940;6.888;2022-09-09T05:04:11;4.90;;;1.90;;
3278;SDS011;1651;50.940;6.888;2022-09-09T05:06:37;1.87;;;1.70;;
3278;SDS011;1651;50.940;6.888;2022-09-09T05:09:03;3.30;;;1.70;;
3278;SDS011;1651;50.940;6.888;2022-09-09T05:11:29;5.17;;;1.40;;
3278;SDS011;1651;50.940;6.888;2022-09-09T05:14:01;6.43;;;1.77;;
3278;SDS011;1651;50.940;6.888;2022-09-09T05:16:28;6.23;;;1.57;;
3278;SDS011;1651;50.940;6.888;2022-09-09T05:18:56;3.37;;;1.67;;
3278;SDS011;1651;50.940;6.888;2022-09-09T05:21:24;3.77;;;1.80;;
3278;SDS011;1651;50.940;6.888;2022-09-09T05:23:51;4.87;;;1.60;;
3278;SDS011;1651;50.940;6.888;2022-09-09T05:26:18;5.13;;;1.53;;
3278;SDS011;1651;50.940;6.888;2022-09-09T05:28:47;3.00;;;1.43;;
3278;SDS011;1651;50.940;6.888;2022-09-09T05:31:14;4.90;;;1.60;;
3278;SDS011;1651;50.940;6.888;2022-09-09T05:33:41;2.20;;;1.40;;
3278;SDS011;1651;50.940;6.888;2022-09-09T05:36:09;2.97;;;1.53;;
3278;SDS011;1651;50.940;6.888;2022-09-09T05:38:37;2.80;;;1.70;;
3278;SDS011;1651;50.940;6.888;2022-09-09T05:41:05;4.80;;;1.90;;
3278;SDS011;1651;50.940;6.888;2022-09-09T05:43:31;4.13;;;1.70;;
3278;SDS011;1651;50.940;6.888;2022-09-09T05:46:05;2.60;;;1.80;;
3278;SDS011;1651;50.940;6.888;2022-09-09T05:48:42;3.03;;;1.63;;
3278;SDS011;1651;50.940;6.888;2022-09-09T05:51:10;3.73;;;1.60;;
3278;SDS011;1651;50.940;6.888;2022-09-09T05:53:37;3.50;;;1.60;;
3278;SDS011;1651;50.940;6.888;2022-09-09T05:56:04;6.97;;;1.60;;
3278;SDS011;1651;50.940;6.888;2022-09-09T05:58:34;5.43;;;1.60;;
3278;SDS011;1651;50.940;6.888;2022-09-09T06:01:05;4.50;;;1.60;;
3278;SDS011;1651;50.940;6.888;2022-09-09T06:03:32;4.60;;;1.47;;
3278;SDS011;1651;50.940;6.888;2022-09-09T06:05:59;3.13;;;1.23;;
3278;SDS011;1651;50.940;6.888;2022-09-09T06:08:25;3.83;;;1.43;;
3278;SDS011;1651;50.940;6.888;2022-09-09T06:10:51;2.70;;;1.53;;
3278;SDS011;1651;50.940;6.888;2022-09-09T06:13:17;6.67;;;1.67;;
3278;SDS011;1651;50.940;6.888;2022-09-09T06:15:50;4.60;;;1.40;;
3278;SDS011;1651;50.940;6.888;2022-09-09T06:18:17;4.13;;;1.17;;
3278;SDS011;1651;50.940;6.888;2022-09-09T06:20:52;2.30;;;1.20;;
3278;SDS011;1651;50.940;6.888;2022-09-09T06:23:19;4.10;;;1.57;;
3278;SDS011;1651;50.940;6.888;2022-09-09T06:25:46;3.10;;;1.70;;
3278;SDS011;1651;50.940;6.888;2022-09-09T06:28:13;3.10;;;1.13;;
3278;SDS011;1651;50.940;6.888;2022-09-09T06:30:39;1.77;;;1.10;;
3278;SDS011;1651;50.940;6.888;2022-09-09T06:33:06;3.13;;;1.60;;
3278;SDS011;1651;50.940;6.888;2022-09-09T06:35:32;2.97;;;1.13;;
3278;SDS011;1651;50.940;6.888;2022-09-09T06:37:59;2.23;;;1.50;;
3278;SDS011;1651;50.940;6.888;2022-09-09T06:40:25;3.43;;;1.60;;
3278;SDS011;1651;50.940;6.888;2022-09-09T06:42:52;2.37;;;1.50;;
3278;SDS011;1651;50.940;6.888;2022-09-09T06:45:18;1.60;;;1.47;;
3278;SDS011;1651;50.940;6.888;2022-09-09T06:47:44;4.07;;;1.37;;
3278;SDS011;1651;50.940;6.888;2022-09-09T06:50:10;4.40;;;1.50;;
3278;SDS011;1651;50.940;6.888;2022-09-09T06:52:36;4.30;;;1.30;;
3278;SDS011;1651;50.940;6.888;2022-09-09T06:55:03;3.70;;;1.53;;
3278;SDS011;1651;50.940;6.888;2022-09-09T06:57:29;12.53;;;1.70;;
3278;SDS011;1651;50.940;6.888;2022-09-09T06:59:55;7.43;;;1.70;;
3278;SDS011;1651;50.940;6.888;2022-09-09T07:02:21;2.73;;;1.03;;
3278;SDS011;1651;50.940;6.888;2022-09-09T07:04:47;4.30;;;1.50;;
3278;SDS011;1651;50.940;6.888;2022-09-09T07:07:15;5.60;;;2.30;;
3278;SDS011;1651;50.940;6.888;2022-09-09T07:09:42;2.70;;;1.20;;
3278;SDS011;1651;50.940;6.888;2022-09-09T07:12:10;2.13;;;1.10;;
3278;SDS011;1651;50.940;6.888;2022-09-09T07:14:37;2.97;;;1.10;;
3278;SDS011;1651;50.940;6.888;2022-09-09T07:17:04;4.90;;;1.07;;
3278;SDS011;1651;50.940;6.888;2022-09-09T07:19:30;3.00;;;1.10;;
3278;SDS011;1651;50.940;6.888;2022-09-09T07:21:56;4.23;;;0.97;;
3278;SDS011;1651;50.940;6.888;2022-09-09T07:24:22;2.90;;;1.40;;
3278;SDS011;1651;50.940;6.888;2022-09-09T07:26:48;7.27;;;1.13;;
3278;SDS011;1651;50.940;6.888;2022-09-09T07:29:14;1.57;;;0.90;;
3278;SDS011;1651;50.940;6.888;2022-09-09T07:31:41;2.63;;;1.27;;
3278;SDS011;1651;50.940;6.888;2022-09-09T07:34:07;5.07;;;1.73;;
3278;SDS011;1651;50.940;6.888;2022-09-09T07:36:34;2.77;;;1.20;;
3278;SDS011;1651;50.940;6.888;2022-09-09T07:39:05;5.07;;;1.70;;
3278;SDS011;1651;50.940;6.888;2022-09-09T07:41:36;6.80;;;0.97;;
3278;SDS011;1651;50.940;6.888;2022-09-09T07:47:09;1.83;;;1.00;;
3278;SDS011;1651;50.940;6.888;2022-09-09T07:50:09;4.10;;;1.30;;
3278;SDS011;1651;50.940;6.888;2022-09-09T07:52:44;4.20;;;1.40;;
3278;SDS011;1651;50.940;6.888;2022-09-09T07:55:10;4.50;;;1.20;;
3278;SDS011;1651;50.940;6.888;2022-09-09T07:57:36;2.40;;;1.40;;
3278;SDS011;1651;50.940;6.888;2022-09-09T08:00:03;2.67;;;1.10;;
3278;SDS011;1651;50.940;6.888;2022-09-09T08:02:30;3.10;;;1.20;;
3278;SDS011;1651;50.940;6.888;2022-09-09T08:04:56;4.47;;;1.37;;
3278;SDS011;1651;50.940;6.888;2022-09-09T08:07:23;4.90;;;1.43;;
3278;SDS011;1651;50.940;6.888;2022-09-09T08:09:50;4.37;;;1.77;;
3278;SDS011;1651;50.940;6.888;2022-09-09T08:12:16;4.73;;;1.33;;
3278;SDS011;1651;50.940;6.888;2022-09-09T08:14:43;4.00;;;1.30;;
3278;SDS011;1651;50.940;6.888;2022-09-09T08:17:09;3.40;;;1.60;;
3278;SDS011;1651;50.940;6.888;2022-09-09T08:19:35;3.27;;;1.67;;
3278;SDS011;1651;50.940;6.888;2022-09-09T08:22:01;5.43;;;1.30;;
3278;SDS011;1651;50.940;6.888;2022-09-09T08:24:27;5.70;;;1.37;;
3278;SDS011;1651;50.940;6.888;2022-09-09T08:26:53;6.77;;;1.57;;
3278;SDS011;1651;50.940;6.888;2022-09-09T08:29:21;3.70;;;1.30;;
3278;SDS011;1651;50.940;6.888;2022-09-09T08:31:51;2.70;;;1.17;;
3278;SDS011;1651;50.940;6.888;2022-09-09T08:34:19;2.87;;;1.20;;
3278;SDS011;1651;50.940;6.888;2022-09-09T08:36:45;4.63;;;1.60;;
3278;SDS011;1651;50.940;6.888;2022-09-09T08:39:14;2.70;;;1.53;;
3278;SDS011;1651;50.940;6.888;2022-09-09T08:49:31;3.20;;;1.23;;
3278;SDS011;1651;50.940;6.888;2022-09-09T08:51:59;2.13;;;0.87;;
3278;SDS011;1651;50.940;6.888;2022-09-09T08:54:26;3.33;;;1.07;;
3278;SDS011;1651;50.940;6.888;2022-09-09T08:56:57;4.53;;;1.63;;
3278;SDS011;1651;50.940;6.888;2022-09-09T08:59:23;2.80;;;1.20;;
3278;SDS011;1651;50.940;6.888;2022-09-09T09:01:58;2.40;;;1.10;;
3278;SDS011;1651;50.940;6.888;2022-09-09T09:12:48;2.13;;;0.80;;
3278;SDS011;1651;50.940;6.888;2022-09-09T09:15:23;1.93;;;1.10;;
3278;SDS011;1651;50.940;6.888;2022-09-09T09:17:50;2.83;;;1.10;;
3278;SDS011;1651;50.940;6.888;2022-09-09T09:20:16;1.93;;;0.93;;
3278;SDS011;1651;50.940;6.888;2022-09-09T09:22:48;3.93;;;1.30;;
3278;SDS011;1651;50.940;6.888;2022-09-09T09:25:21;6.80;;;1.37;;
3278;SDS011;1651;50.940;6.888;2022-09-09T09:30:23;2.97;;;1.20;;
3278;SDS011;1651;50.940;6.888;2022-09-09T09:35:51;2.83;;;1.00;;
3278;SDS011;1651;50.940;6.888;2022-09-09T09:38:26;4.50;;;1.10;;
3278;SDS011;1651;50.940;6.888;2022-09-09T09:40:56;1.97;;;1.00;;
3278;SDS011;1651;50.940;6.888;2022-09-09T09:43:35;7.63;;;1.10;;
3278;SDS011;1651;50.940;6.888;2022-09-09T09:46:05;2.93;;;1.13;;
3278;SDS011;1651;50.940;6.888;2022-09-09T09:48:33;3.60;;;0.97;;
3278;SDS011;1651;50.940;6.888;2022-09-09T09:53:28;2.33;;;0.90;;
3278;SDS011;1651;50.940;6.888;2022-09-09T09:55:59;2.60;;;1.10;;
3278;SDS011;1651;50.940;6.888;2022-09-09T10:01:18;1.83;;;1.00;;
3278;SDS011;1651;50.940;6.888;2022-09-09T10:03:50;4.60;;;1.00;;
3278;SDS011;1651;50.940;6.888;2022-09-09T10:06:16;1.80;;;1.17;;
3278;SDS011;1651;50.940;6.888;2022-09-09T10:08:45;2.50;;;1.20;;
3278;SDS011;1651;50.940;6.888;2022-09-09T10:19:04;1.17;;;0.90;;
3278;SDS011;1651;50.940;6.888;2022-09-09T10:22:02;1.47;;;1.07;;
3278;SDS011;1651;50.940;6.888;2022-09-09T10:33:55;2.47;;;1.10;;
3278;SDS011;1651;50.940;6.888;2022-09-09T10:38:40;2.57;;;1.00;;
3278;SDS011;1651;50.940;6.888;2022-09-09T10:52:00;6.93;;;1.10;;
3278;SDS011;1651;50.940;6.888;2022-09-09T10:54:52;2.37;;;1.00;;
3278;SDS011;1651;50.940;6.888;2022-09-09T10:57:31;1.70;;;0.87;;
3278;SDS011;1651;50.940;6.888;2022-09-09T11:00:03;3.23;;;1.40;;
3278;SDS011;1651;50.940;6.888;2022-09-09T11:02:30;2.63;;;1.53;;
3278;SDS011;1651;50.940;6.888;2022-09-09T11:04:59;2.17;;;0.90;;
3278;SDS011;1651;50.940;6.888;2022-09-09T11:13:03;4.83;;;1.10;;
3278;SDS011;1651;50.940;6.888;2022-09-09T11:15:41;1.40;;;0.90;;
3278;SDS011;1651;50.940;6.888;2022-09-09T11:21:02;1.73;;;0.90;;
3278;SDS011;1651;50.940;6.888;2022-09-09T11:23:47;2.80;;;0.97;;
3278;SDS011;1651;50.940;6.888;2022-09-09T11:26:17;4.80;;;1.50;;
3278;SDS011;1651;50.940;6.888;2022-09-09T11:41:51;3.13;;;1.50;;
3278;SDS011;1651;50.940;6.888;2022-09-09T11:44:18;1.53;;;1.17;;
3278;SDS011;1651;50.940;6.888;2022-09-09T11:46:46;1.83;;;1.03;;
3278;SDS011;1651;50.940;6.888;2022-09-09T11:49:25;2.17;;;0.90;;
3278;SDS011;1651;50.940;6.888;2022-09-09T11:51:52;4.70;;;1.47;;
3278;SDS011;1651;50.940;6.888;2022-09-09T11:54:32;2.13;;;0.90;;
3278;SDS011;1651;50.940;6.888;2022-09-09T11:57:02;3.43;;;1.33;;
3278;SDS011;1651;50.940;6.888;2022-09-09T11:59:30;2.77;;;0.90;;
3278;SDS011;1651;50.940;6.888;2022-09-09T12:01:58;4.37;;;1.20;;
3278;SDS011;1651;50.940;6.888;2022-09-09T12:04:33;3.43;;;1.20;;
3278;SDS011;1651;50.940;6.888;2022-09-09T12:09:51;8.57;;;2.00;;
3278;SDS011;1651;50.940;6.888;2022-09-09T12:12:24;2.33;;;0.90;;
3278;SDS011;1651;50.940;6.888;2022-09-09T12:15:01;2.67;;;1.00;;
3278;SDS011;1651;50.940;6.888;2022-09-09T12:17:31;1.77;;;1.00;;
3278;SDS011;1651;50.940;6.888;2022-09-09T12:22:40;1.77;;;0.93;;
3278;SDS011;1651;50.940;6.888;2022-09-09T12:27:46;3.43;;;0.90;;
3278;SDS011;1651;50.940;6.888;2022-09-09T12:30:17;2.20;;;1.20;;
3278;SDS011;1651;50.940;6.888;2022-09-09T12:32:43;3.20;;;1.30;;
3278;SDS011;1651;50.940;6.888;2022-09-09T12:35:22;2.50;;;1.00;;
3278;SDS011;1651;50.940;6.888;2022-09-09T12:37:59;1.77;;;1.43;;
3278;SDS011;1651;50.940;6.888;2022-09-09T12:40:30;6.23;;;1.30;;
3278;SDS011;1651;50.940;6.888;2022-09-09T12:43:00;7.87;;;1.30;;
3278;SDS011;1651;50.940;6.888;2022-09-09T12:45:28;1.97;;;1.00;;
3278;SDS011;1651;50.940;6.888;2022-09-09T12:48:06;2.50;;;1.10;;
3278;SDS011;1651;50.940;6.888;2022-09-09T12:50:50;3.43;;;1.00;;
3278;SDS011;1651;50.940;6.888;2022-09-09T12:53:24;3.37;;;1.10;;
3278;SDS011;1651;50.940;6.888;2022-09-09T12:55:56;1.10;;;0.77;;
3278;SDS011;1651;50.940;6.888;2022-09-09T12:58:22;3.03;;;1.10;;
3278;SDS011;1651;50.940;6.888;2022-09-09T13:00:50;2.80;;;1.10;;
3278;SDS011;1651;50.940;6.888;2022-09-09T13:03:20;3.87;;;1.23;;
3278;SDS011;1651;50.940;6.888;2022-09-09T13:05:46;2.60;;;0.83;;
3278;SDS011;1651;50.940;6.888;2022-09-09T13:08:15;1.30;;;0.90;;
3278;SDS011;1651;50.940;6.888;2022-09-09T13:13:14;3.07;;;1.03;;
3278;SDS011;1651;50.940;6.888;2022-09-09T13:15:47;1.73;;;0.90;;
3278;SDS011;1651;50.940;6.888;2022-09-09T13:18:13;2.13;;;0.97;;
3278;SDS011;1651;50.940;6.888;2022-09-09T13:20:45;2.03;;;0.83;;
3278;SDS011;1651;50.940;6.888;2022-09-09T13:23:12;1.20;;;1.00;;
3278;SDS011;1651;50.940;6.888;2022-09-09T13:25:39;1.10;;;0.80;;
3278;SDS011;1651;50.940;6.888;2022-09-09T13:28:18;1.70;;;0.90;;
3278;SDS011;1651;50.940;6.888;2022-09-09T13:30:57;2.40;;;0.90;;
3278;SDS011;1651;50.940;6.888;2022-09-09T13:33:29;3.20;;;0.90;;
3278;SDS011;1651;50.940;6.888;2022-09-09T13:35:56;6.10;;;0.73;;
3278;SDS011;1651;50.940;6.888;2022-09-09T13:38:23;0.93;;;0.70;;
3278;SDS011;1651;50.940;6.888;2022-09-09T13:40:57;0.90;;;0.77;;
3278;SDS011;1651;50.940;6.888;2022-09-09T13:43:29;1.77;;;0.90;;
3278;SDS011;1651;50.940;6.888;2022-09-09T13:45:56;1.53;;;0.90;;
3278;SDS011;1651;50.940;6.888;2022-09-09T13:48:23;1.77;;;0.83;;
3278;SDS011;1651;50.940;6.888;2022-09-09T13:50:55;1.50;;;0.80;;
3278;SDS011;1651;50.940;6.888;2022-09-09T13:53:22;2.13;;;0.83;;
3278;SDS011;1651;50.940;6.888;2022-09-09T13:55:48;1.20;;;1.07;;
3278;SDS011;1651;50.940;6.888;2022-09-09T13:58:14;1.67;;;1.00;;
3278;SDS011;1651;50.940;6.888;2022-09-09T14:00:41;1.40;;;0.90;;
3278;SDS011;1651;50.940;6.888;2022-09-09T14:03:11;2.63;;;1.10;;
3278;SDS011;1651;50.940;6.888;2022-09-09T14:05:37;1.23;;;0.80;;
3278;SDS011;1651;50.940;6.888;2022-09-09T14:08:03;1.83;;;1.20;;
3278;SDS011;1651;50.940;6.888;2022-09-09T14:10:29;1.13;;;0.80;;
3278;SDS011;1651;50.940;6.888;2022-09-09T14:12:56;3.60;;;1.93;;
3278;SDS011;1651;50.940;6.888;2022-09-09T14:15:24;4.67;;;1.10;;
3278;SDS011;1651;50.940;6.888;2022-09-09T14:17:55;0.93;;;0.83;;
3278;SDS011;1651;50.940;6.888;2022-09-09T14:20:24;4.37;;;1.03;;
3278;SDS011;1651;50.940;6.888;2022-09-09T14:22:50;4.33;;;1.00;;
3278;SDS011;1651;50.940;6.888;2022-09-09T14:25:18;1.47;;;1.10;;
3278;SDS011;1651;50.940;6.888;2022-09-09T14:27:44;2.97;;;1.20;;
3278;SDS011;1651;50.940;6.888;2022-09-09T14:30:11;5.53;;;1.40;;
3278;SDS011;1651;50.940;6.888;2022-09-09T14:32:37;3.40;;;1.10;;
3278;SDS011;1651;50.940;6.888;2022-09-09T14:35:03;2.23;;;1.10;;
3278;SDS011;1651;50.940;6.888;2022-09-09T14:37:29;5.00;;;1.60;;
3278;SDS011;1651;50.940;6.888;2022-09-09T14:39:56;6.97;;;1.30;;
3278;SDS011;1651;50.940;6.888;2022-09-09T14:42:22;2.00;;;1.47;;
3278;SDS011;1651;50.940;6.888;2022-09-09T14:44:48;1.47;;;1.00;;
3278;SDS011;1651;50.940;6.888;2022-09-09T14:47:14;1.97;;;1.20;;
3278;SDS011;1651;50.940;6.888;2022-09-09T14:49:40;4.20;;;1.60;;
3278;SDS011;1651;50.940;6.888;2022-09-09T14:52:06;1.43;;;1.20;;
3278;SDS011;1651;50.940;6.888;2022-09-09T14:54:34;4.67;;;1.30;;
3278;SDS011;1651;50.940;6.888;2022-09-09T14:57:00;3.60;;;1.40;;
3278;SDS011;1651;50.940;6.888;2022-09-09T14:59:25;4.80;;;1.47;;
3278;SDS011;1651;50.940;6.888;2022-09-09T15:01:52;2.20;;;1.10;;
3278;SDS011;1651;50.940;6.888;2022-09-09T15:04:18;1.40;;;1.00;;
3278;SDS011;1651;50.940;6.888;2022-09-09T15:06:44;4.43;;;1.33;;
3278;SDS011;1651;50.940;6.888;2022-09-09T15:09:13;3.20;;;1.70;;
3278;SDS011;1651;50.940;6.888;2022-09-09T15:11:39;3.30;;;1.03;;
3278;SDS011;1651;50.940;6.888;2022-09-09T15:14:06;3.27;;;1.10;;
3278;SDS011;1651;50.940;6.888;2022-09-09T15:16:33;1.97;;;1.00;;
3278;SDS011;1651;50.940;6.888;2022-09-09T15:19:00;2.47;;;1.00;;
3278;SDS011;1651;50.940;6.888;2022-09-09T15:21:27;1.43;;;1.20;;
3278;SDS011;1651;50.940;6.888;2022-09-09T15:23:54;2.53;;;1.20;;
3278;SDS011;1651;50.940;6.888;2022-09-09T15:26:21;1.67;;;1.17;;
3278;SDS011;1651;50.940;6.888;2022-09-09T15:28:47;1.40;;;0.80;;
3278;SDS011;1651;50.940;6.888;2022-09-09T15:31:21;1.37;;;0.90;;
3278;SDS011;1651;50.940;6.888;2022-09-09T15:33:48;2.50;;;1.20;;
3278;SDS011;1651;50.940;6.888;2022-09-09T15:36:18;1.47;;;1.20;;
3278;SDS011;1651;50.940;6.888;2022-09-09T15:38:45;3.27;;;1.17;;
3278;SDS011;1651;50.940;6.888;2022-09-09T15:41:11;2.30;;;1.17;;
3278;SDS011;1651;50.940;6.888;2022-09-09T15:43:38;3.20;;;1.23;;
3278;SDS011;1651;50.940;6.888;2022-09-09T15:46:39;2.27;;;1.20;;
3278;SDS011;1651;50.940;6.888;2022-09-09T15:49:18;1.73;;;1.07;;
3278;SDS011;1651;50.940;6.888;2022-09-09T15:51:44;2.77;;;1.33;;
3278;SDS011;1651;50.940;6.888;2022-09-09T15:54:11;1.20;;;0.80;;
3278;SDS011;1651;50.940;6.888;2022-09-09T15:56:37;2.30;;;0.90;;
3278;SDS011;1651;50.940;6.888;2022-09-09T15:59:07;3.53;;;0.80;;
3278;SDS011;1651;50.940;6.888;2022-09-09T16:01:33;1.83;;;0.80;;
3278;SDS011;1651;50.940;6.888;2022-09-09T16:03:59;1.93;;;0.80;;
3278;SDS011;1651;50.940;6.888;2022-09-09T16:06:25;1.53;;;0.80;;
3278;SDS011;1651;50.940;6.888;2022-09-09T16:08:53;1.87;;;0.80;;
3278;SDS011;1651;50.940;6.888;2022-09-09T16:11:24;1.33;;;0.90;;
3278;SDS011;1651;50.940;6.888;2022-09-09T16:13:51;1.20;;;0.73;;
3278;SDS011;1651;50.940;6.888;2022-09-09T16:16:18;1.40;;;0.80;;
3278;SDS011;1651;50.940;6.888;2022-09-09T16:18:48;4.83;;;1.20;;
3278;SDS011;1651;50.940;6.888;2022-09-09T16:21:20;3.67;;;1.00;;
3278;SDS011;1651;50.940;6.888;2022-09-09T16:23:46;2.90;;;0.80;;
3278;SDS011;1651;50.940;6.888;2022-09-09T16:26:14;2.07;;;1.23;;
3278;SDS011;1651;50.940;6.888;2022-09-09T16:28:40;2.50;;;1.07;;
3278;SDS011;1651;50.940;6.888;2022-09-09T16:31:07;1.40;;;1.00;;
3278;SDS011;1651;50.940;6.888;2022-09-09T16:33:35;1.90;;;1.10;;
3278;SDS011;1651;50.940;6.888;2022-09-09T16:36:06;1.60;;;1.10;;
3278;SDS011;1651;50.940;6.888;2022-09-09T16:38:32;2.43;;;1.10;;
3278;SDS011;1651;50.940;6.888;2022-09-09T16:41:00;2.30;;;1.00;;
3278;SDS011;1651;50.940;6.888;2022-09-09T16:43:27;2.50;;;1.00;;
3278;SDS011;1651;50.940;6.888;2022-09-09T16:45:53;2.90;;;1.37;;
3278;SDS011;1651;50.940;6.888;2022-09-09T16:48:19;4.33;;;1.30;;
3278;SDS011;1651;50.940;6.888;2022-09-09T16:50:45;2.23;;;1.30;;
3278;SDS011;1651;50.940;6.888;2022-09-09T16:53:12;1.93;;;1.10;;
3278;SDS011;1651;50.940;6.888;2022-09-09T16:55:39;3.80;;;1.40;;
3278;SDS011;1651;50.940;6.888;2022-09-09T16:58:08;1.93;;;1.30;;
3278;SDS011;1651;50.940;6.888;2022-09-09T17:00:36;3.00;;;1.00;;
3278;SDS011;1651;50.940;6.888;2022-09-09T17:03:02;2.13;;;1.20;;
3278;SDS011;1651;50.940;6.888;2022-09-09T17:05:28;1.83;;;1.10;;
3278;SDS011;1651;50.940;6.888;2022-09-09T17:07:55;3.27;;;1.30;;
3278;SDS011;1651;50.940;6.888;2022-09-09T17:10:24;2.90;;;1.00;;
3278;SDS011;1651;50.940;6.888;2022-09-09T17:12:50;3.87;;;1.20;;
3278;SDS011;1651;50.940;6.888;2022-09-09T17:15:16;1.73;;;1.63;;
3278;SDS011;1651;50.940;6.888;2022-09-09T17:17:44;3.57;;;1.60;;
3278;SDS011;1651;50.940;6.888;2022-09-09T17:20:13;3.10;;;1.20;;
3278;SDS011;1651;50.940;6.888;2022-09-09T17:22:40;3.07;;;1.60;;
3278;SDS011;1651;50.940;6.888;2022-09-09T17:25:07;4.00;;;1.63;;
3278;SDS011;1651;50.940;6.888;2022-09-09T17:27:33;1.60;;;1.27;;
3278;SDS011;1651;50.940;6.888;2022-09-09T17:29:59;1.50;;;1.23;;
3278;SDS011;1651;50.940;6.888;2022-09-09T17:32:25;1.93;;;1.20;;
3278;SDS011;1651;50.940;6.888;2022-09-09T17:34:51;1.70;;;1.20;;
3278;SDS011;1651;50.940;6.888;2022-09-09T17:37:18;1.97;;;1.40;;